Flight Track Log - Related Links

Times and Time Zones

All times are in EDT time to prevent confusion due to time zone crossing. See the DAL930 flight status page for this flight to view local times or setup timezone preferences in your user account.


Time Position Orientation Groundspeed Altitude Reporting Facility
EDT Latitude Longitude Course Direction KTS MPH feet Rate Location/Type
Fri 11:47:17 AM 40.7667 -73.8333 217° Southwest 165 190 1,300  Level New York TRACON
Fri 11:48:23 AM 40.7000 -73.8333 180° South 198 228 3,400 2,095 Climbing New York TRACON
Fri 11:49:00 AM 40.4387 -74.0224 201° Southwest  Level FlightAware Approximate
Fri 11:49:23 AM 40.6500 -73.8500 194° South 205 236 5,700  Level New York TRACON
Fri 11:50:00 AM 40.3278 -74.0778 201° Southwest  Level FlightAware Approximate
Fri 11:50:23 AM 40.6167 -73.9000 229° Southwest 201 231 8,300  Level New York TRACON
Fri 11:51:00 AM 40.2170 -74.1331 201° Southwest  Level FlightAware Approximate
Fri 11:51:23 AM 40.5500 -73.9333 201° Southwest 239 275 10,100  Level New York TRACON
Fri 11:52:00 AM 40.1103 -74.1897 217° Southwest  Level FlightAware Approximate
Fri 11:52:23 AM 40.5000 -73.9833 217° Southwest 286 329 11,200  Level New York TRACON
Fri 11:54:12 AM 40.3519 -74.1072 213° Southwest 343 395 14,100 1,775 Climbing New York Center
Fri 11:55:12 AM 40.2644 -74.1819 213° Southwest 375 432 16,200 1,934 Climbing New York Center
Fri 11:56:13 AM 40.1767 -74.2564 213° Southwest 381 438 18,000 1,737 Climbing New York Center
Fri 11:57:44 AM 40.0447 -74.3775 215° Southwest 402 463 20,600 1,589 Climbing Washington Center
Fri 11:58:44 AM 39.9561 -74.4683 218° Southwest 407 468 22,000 1,400 Climbing Washington Center
Fri 11:59:44 AM 39.8633 -74.5617 218° Southwest 413 475 23,400 1,000 Climbing Washington Center
Fri 12:00:44 PM 39.7619 -74.6575 216° Southwest 418 481 24,000 756 Climbing Washington Center
Fri 12:01:43 PM 39.6708 -74.7503 218° Southwest 418 481 24,900 1,008 Climbing Washington Center
Fri 12:02:43 PM 39.5758 -74.8431 217° Southwest 418 481 26,000 1,190 Climbing Washington Center
Fri 12:03:44 PM 39.4825 -74.9356 217° Southwest 423 487 27,300 1,000 Climbing Washington Center
Fri 12:04:43 PM 39.3872 -75.0222 215° Southwest 423 487 28,000 353 Climbing Washington Center
Fri 12:05:43 PM 39.2728 -75.0794 201° Southwest 423 487 28,000  Level Washington Center
Fri 12:06:43 PM 39.1625 -75.1311 200° South 429 494 28,000  Level Washington Center
Fri 12:07:43 PM 39.0481 -75.1853 200° South 434 499 28,000  Level Washington Center
Fri 12:08:43 PM 38.9378 -75.2394 201° Southwest 434 499 28,000  Level Washington Center
Fri 12:09:44 PM 38.8253 -75.2878 199° South 434 499 28,000  Level Washington Center
Fri 12:10:43 PM 38.7150 -75.3389 200° South 429 494 28,000  Level Washington Center
Fri 12:11:43 PM 38.6025 -75.3925 200° South 429 494 28,000  Level Washington Center
Fri 12:12:43 PM 38.4900 -75.4431 199° South 429 494 28,000  Level Washington Center
Fri 12:13:43 PM 38.3775 -75.4964 200° South 429 494 28,000  Level Washington Center
Fri 12:15:00 PM 38.2399 -75.5413 199° South  Level FlightAware Approximate
Fri 12:16:43 PM 38.0522 -75.6367 203° Southwest 435 501 28,000  Level Washington Center
Fri 12:17:43 PM 37.9436 -75.6919 202° Southwest 428 493 28,000  Level Washington Center
Fri 12:18:43 PM 37.8311 -75.7417 199° South 428 493 28,000  Level Washington Center
Fri 12:19:43 PM 37.7183 -75.7861 197° South 428 493 28,000  Level Washington Center
Fri 12:20:43 PM 37.6056 -75.8356 199° South 428 493 28,000  Level Washington Center
Fri 12:21:43 PM 37.4928 -75.8875 200° South 428 493 28,000  Level Washington Center
Fri 12:22:00 PM 37.5118 -75.8613 203° Southwest  Level FlightAware Approximate
Fri 12:22:43 PM 37.3864 -75.9472 204° Southwest 428 493 28,000  Level Washington Center
Fri 12:23:43 PM 37.2778 -76.0042 203° Southwest 428 493 28,000  Level Washington Center
Fri 12:24:43 PM 37.1669 -76.0636 203° Southwest 428 493 28,000  Level Washington Center
Fri 12:25:43 PM 37.0583 -76.1203 203° Southwest 428 493 28,000  Level Washington Center
Fri 12:26:43 PM 36.9433 -76.1767 201° Southwest 439 505 28,000  Level Washington Center
Fri 12:27:43 PM 36.8406 -76.2486 209° Southwest 439 505 28,000  Level Washington Center
Fri 12:28:43 PM 36.7442 -76.3333 215° Southwest 433 498 28,000  Level Washington Center
Fri 12:29:43 PM 36.6517 -76.4231 218° Southwest 433 498 28,000  Level Washington Center
Fri 12:30:43 PM 36.5425 -76.5228 216° Southwest 440 506 28,000  Level Washington Center
Fri 12:31:44 PM 36.4481 -76.6094 216° Southwest 440 506 28,000  Level Washington Center
Fri 12:32:44 PM 36.3553 -76.7008 218° Southwest 440 506 28,000  Level Washington Center
Fri 12:33:44 PM 36.2628 -76.7950 219° Southwest 440 506 28,000  Level Washington Center
Fri 12:34:44 PM 36.1700 -76.8861 218° Southwest 440 506 28,000  Level Washington Center
Fri 12:35:43 PM 36.0772 -76.9772 218° Southwest 434 499 28,000  Level Washington Center
Fri 12:36:44 PM 35.9883 -77.0706 220° Southwest 429 494 28,000  Level Washington Center
Fri 12:37:44 PM 35.9100 -77.1564 222° Southwest 424 488 28,000  Level Washington Center
Fri 12:38:44 PM 35.8169 -77.2467 218° Southwest 424 488 28,000  Level Washington Center
Fri 12:39:44 PM 35.7239 -77.3394 219° Southwest 424 488 28,000  Level Washington Center
Fri 12:40:44 PM 35.6328 -77.4294 219° Southwest 424 488 28,000  Level Washington Center
Fri 12:41:44 PM 35.5417 -77.5219 220° Southwest 424 488 28,000  Level Washington Center
Fri 12:42:44 PM 35.4506 -77.6114 219° Southwest 429 494 28,000  Level Washington Center
Fri 12:43:44 PM 35.3550 -77.7008 217° Southwest 429 494 28,000  Level Washington Center
Fri 12:44:43 PM 35.2658 -77.7900 219° Southwest 424 488 28,000  Level Washington Center
Fri 12:45:44 PM 35.1722 -77.8814 219° Southwest 429 494 28,000  Level Washington Center
Fri 12:46:44 PM 35.0767 -77.9725 218° Southwest 429 494 28,000  Level Washington Center
Fri 12:47:44 PM 34.9850 -78.0636 219° Southwest 429 494 28,000  Level Washington Center
Fri 12:48:44 PM 34.8914 -78.1519 218° Southwest 429 494 28,000  Level Washington Center
Fri 12:49:44 PM 34.8017 -78.2453 221° Southwest 429 494 28,000  Level Washington Center
Fri 12:50:44 PM 34.7058 -78.3331 217° Southwest 429 494 28,000  Level Washington Center
Fri 12:51:44 PM 34.6056 -78.4281 218° Southwest 429 494 28,000  Level Washington Center
Fri 12:54:56 PM 34.3078 -78.7197 219° Southwest 431 496 28,000  Level Jacksonville Center
Fri 12:55:56 PM 34.2147 -78.8097 219° Southwest 431 496 28,000  Level Jacksonville Center
Fri 12:56:56 PM 34.1239 -78.9017 220° Southwest 431 496 28,000  Level Jacksonville Center
Fri 12:57:56 PM 34.0264 -78.9889 217° Southwest 437 503 28,000  Level Jacksonville Center
Fri 12:58:56 PM 33.9331 -79.0756 218° Southwest 437 503 28,000  Level Jacksonville Center
Fri 12:59:56 PM 33.8397 -79.1622 218° Southwest 431 496 28,000  Level Jacksonville Center
Fri 01:00:56 PM 33.7442 -79.2511 218° Southwest 431 496 28,000  Level Jacksonville Center
Fri 01:01:56 PM 33.6528 -79.3372 218° Southwest 426 490 28,000  Level Jacksonville Center
Fri 01:02:56 PM 33.5614 -79.4256 219° Southwest 426 490 28,000  Level Jacksonville Center
Fri 01:03:56 PM 33.4656 -79.5114 217° Southwest 431 496 28,000  Level Jacksonville Center
Fri 01:04:56 PM 33.3739 -79.5994 219° Southwest 431 496 28,000  Level Jacksonville Center
Fri 01:05:56 PM 33.2803 -79.6875 218° Southwest 431 496 28,000  Level Jacksonville Center
Fri 01:06:56 PM 33.1883 -79.7703 217° Southwest 426 490 28,000  Level Jacksonville Center
Fri 01:07:56 PM 33.0967 -79.8553 218° Southwest 426 490 28,000  Level Jacksonville Center
Fri 01:08:56 PM 33.0025 -79.9400 217° Southwest 431 496 28,000  Level Jacksonville Center
Fri 01:09:56 PM 32.9086 -80.0272 218° Southwest 431 496 28,000  Level Jacksonville Center
Fri 01:10:56 PM 32.8100 -80.1022 213° Southwest 431 496 28,000  Level Jacksonville Center
Fri 01:11:56 PM 32.7094 -80.1792 213° Southwest 431 496 28,000 -50 Level Jacksonville Center
Fri 01:12:56 PM 32.6086 -80.2539 212° Southwest 431 496 27,900  Descending Jacksonville Center
Fri 01:13:56 PM 32.5122 -80.3256 212° Southwest 426 490 28,000 50 Climbing Jacksonville Center
Fri 01:14:56 PM 32.4114 -80.3997 212° Southwest 426 490 28,000  Level Jacksonville Center
Fri 01:15:56 PM 32.3106 -80.4764 213° Southwest 426 490 28,000  Level Jacksonville Center
Fri 01:16:56 PM 32.2075 -80.5478 210° Southwest 426 490 28,000  Level Jacksonville Center
Fri 01:17:56 PM 32.1211 -80.6139 213° Southwest 426 490 28,000  Level Jacksonville Center
Fri 01:18:56 PM 32.0097 -80.6925 211° Southwest 426 490 28,000  Level Jacksonville Center
Fri 01:19:56 PM 31.9086 -80.7608 210° Southwest 426 490 28,000  Level Jacksonville Center
Fri 01:20:56 PM 31.7944 -80.8050 198° South 426 490 28,000  Level Jacksonville Center
Fri 01:21:56 PM 31.6781 -80.8419 195° South 431 496 28,000  Level Jacksonville Center
Fri 01:22:56 PM 31.5764 -80.8708 194° South 431 496 28,000  Level Jacksonville Center
Fri 01:23:56 PM 31.4475 -80.9128 196° South 431 496 28,000  Level Jacksonville Center
Fri 01:24:56 PM 31.3269 -80.9494 195° South 441 507 28,000  Level Jacksonville Center
Fri 01:25:56 PM 31.2083 -80.9833 194° South 441 507 28,000  Level Jacksonville Center
Fri 01:26:56 PM 31.0942 -81.0222 196° South 436 502 28,000  Level Jacksonville Center
Fri 01:27:56 PM 30.9778 -81.0583 195° South 436 502 28,000  Level Jacksonville Center
Fri 01:28:56 PM 30.8614 -81.0919 194° South 431 496 28,000  Level Jacksonville Center
Fri 01:29:56 PM 30.7428 -81.1281 195° South 431 496 28,000  Level Jacksonville Center
Fri 01:30:56 PM 30.6222 -81.1594 193° South 436 502 28,000  Level Jacksonville Center
Fri 01:31:56 PM 30.4989 -81.1567 179° South 436 502 28,000  Level Jacksonville Center
Fri 01:32:56 PM 30.3778 -81.1517 178° South 441 507 28,000  Level Jacksonville Center
Fri 01:33:56 PM 30.2525 -81.1492 179° South 441 507 28,000  Level Jacksonville Center
Fri 01:34:56 PM 30.1250 -81.1467 179° South 446 513 28,000  Level Jacksonville Center
Fri 01:35:56 PM 30.0039 -81.1417 178° South 446 513 28,000  Level Jacksonville Center
Fri 01:36:56 PM 29.8767 -81.1392 179° South 446 513 28,000  Level Jacksonville Center
Fri 01:37:56 PM 29.7492 -81.1342 178° South 451 519 28,000  Level Jacksonville Center
Fri 01:38:56 PM 29.6239 -81.1342 180° South 457 526 28,000  Level Jacksonville Center
Fri 01:39:56 PM 29.5025 -81.1006 166° South 457 526 28,000  Level Jacksonville Center
Fri 01:40:56 PM 29.4075 -81.0261 146° Southeast 441 507 28,000  Level Jacksonville Center
Fri 01:41:56 PM 29.2975 -80.9375 145° Southeast 460 529 28,000  Level Jacksonville Center
Fri 01:42:56 PM 29.1897 -80.8542 146° Southeast 476 548 28,000  Level Jacksonville Center
Fri 01:43:28 PM 29.1308 -80.8094 146° Southeast 475 547 28,000  Level Miami Center
Fri 01:44:28 PM 29.0247 -80.7203 144° Southeast 483 556 28,000  Level Miami Center
Fri 01:45:28 PM 28.9042 -80.6261 146° Southeast 483 556 28,000  Level Miami Center
Fri 01:46:28 PM 28.8000 -80.5419 145° Southeast 475 547 28,000  Level Miami Center
Fri 01:47:28 PM 28.6939 -80.4558 145° Southeast 475 547 28,000  Level Miami Center
Fri 01:48:28 PM 28.5939 -80.3578 139° Southeast 475 547 28,000  Level Miami Center
Fri 01:49:28 PM 28.5086 -80.2656 136° Southeast 475 547 28,000  Level Miami Center
Fri 01:50:28 PM 28.4192 -80.1683 136° Southeast 460 529 28,000  Level Miami Center
Fri 01:51:28 PM 28.3039 -80.0872 148° Southeast 447 514 28,000  Level Miami Center
Fri 01:52:28 PM 28.1858 -80.0508 165° South 435 501 28,000  Level Miami Center
Fri 01:53:28 PM 28.0678 -80.0122 164° South 441 507 28,000  Level Miami Center
Fri 01:54:28 PM 27.9578 -79.9761 164° South 446 513 28,000  Level Miami Center
Fri 01:56:28 PM 27.7008 -79.8964 165° South 456 525 28,000  Level Miami Center
Fri 01:57:28 PM 27.5783 -79.8606 165° South 451 519 28,000 -800 Level Miami Center
Fri 01:58:28 PM 27.4581 -79.8244 165° South 451 519 26,400 -1,300 Descending Miami Center
Fri 01:59:28 PM 27.3522 -79.7914 164° South 445 512 25,400 -1,000 Descending Miami Center
Fri 02:00:28 PM 27.2464 -79.7583 164° South 418 481 24,400 -1,400 Descending Miami Center
Fri 02:01:28 PM 27.1361 -79.7275 166° South 383 441 22,600 -1,650 Descending Miami Center
Fri 02:02:28 PM 27.0431 -79.6811 156° South 365 420 21,100 -1,500 Descending Miami Center
Fri 02:03:28 PM 26.9564 -79.6322 153° Southeast 354 407 19,600 -1,750 Descending Miami Center
Fri 02:04:28 PM 26.8842 -79.5864 150° Southeast 342 394 17,600 -2,150 Descending Miami Center
Fri 02:05:28 PM 26.7975 -79.5308 150° Southeast 329 379 15,300 -1,800 Descending Miami Center
Fri 02:06:28 PM 26.7253 -79.4850 150° Southeast 319 367 14,000 -1,400 Descending Miami Center
Fri 02:07:28 PM 26.6844 -79.5397 230° Southwest 202 232 12,500 -1,400 Descending Miami Center
Fri 02:08:28 PM 26.6603 -79.6067 248° West 215 247 11,200 -1,385 Descending Miami Center
Fri 02:08:46 PM 26.6453 -79.6250 228° Southwest 237 273 10,700 -1,300 Descending Miami Center
Fri 02:09:28 PM 26.6175 -79.6544 223° Southwest 233 268 9,900 -1,294 Descending Miami Center
Fri 02:10:28 PM 26.5644 -79.7044 220° Southwest 238 274 8,500 -950 Descending Miami Center
Fri 02:11:28 PM 26.5239 -79.7475 224° Southwest 238 274 8,000 -265 Descending Miami Center
Fri 02:12:21 PM 26.4728 -79.7972 221° Southwest 228 262 8,000  Level Miami Center
Fri 02:13:28 PM 26.4239 -79.8356 215° Southwest 238 274 8,000 -195 Level Miami Center
Fri 02:14:24 PM 26.3708 -79.8736 213° Southwest 227 261 7,600 -900 Descending Miami Center
Fri 02:15:28 PM 26.3406 -79.9331 240° Southwest 227 261 6,200 -1,345 Descending Miami Center
Fri 02:16:20 PM 26.3078 -79.9925 238° Southwest 227 261 5,000 -1,050 Descending Miami Center
Fri 02:17:28 PM 26.2794 -80.0542 243° Southwest 228 262 4,100 -469 Descending Miami Center
Fri 02:18:28 PM 26.2467 -80.1206 241° Southwest 223 257 4,000 -49 Descending Miami Center
Fri 02:19:30 PM 26.2139 -80.1822 239° Southwest 221 254 4,000  Level Miami Center
Fri 02:20:25 PM 26.1875 -80.2369 242° Southwest 222 255 4,000  Level Miami Center
Fri 02:21:32 PM 26.1589 -80.3056 245° Southwest 188 216 4,000  Level Miami Center
Fri 02:22:34 PM 26.1575 -80.3633 268° West 188 216 4,000  Level Miami Center
Fri 02:23:35 PM 26.1581 -80.4189 271° West 183 211 4,000  Level Miami Center
Fri 02:24:42 PM 26.1078 -80.4314 193° South 169 194 4,000 -179 Level Miami Center
Fri 02:25:49 PM 26.0775 -80.3842 126° Southeast 178 205 3,600 -513 Descending Miami Center
Fri 02:26:39 PM 26.0744 -80.3403 94° East 173 199 3,000 -720 Descending Miami Center

Login

Don't have an account? Register now (free) for customized features, flight alerts, and more!